Time;durP1;ratioP1;P1;durP2;ratioP2;P2;SDS_P1;SDS_P2;PMS_P1;PMS_P2;Temp;Humidity;BMP_temperature;BMP_pressure;BME280_temperature;BME280_humidity;BME280_pressure;Samples;Min_cycle;Max_cycle;Signal;HPM_P1;HPM_P2
2023/08/10 00:02:44;;;;;;;9.68;2.72;;;12.90;99.90;;;;;;5034967;28;20037;-84
2023/08/10 00:05:31;;;;;;;5.28;3.10;;;12.80;99.90;;;;;;5029018;28;20045;-85
2023/08/10 00:08:22;;;;;;;3.60;2.72;;;12.70;99.90;;;;;;5026607;28;20064;-86
2023/08/10 00:11:09;;;;;;;4.63;3.30;;;12.60;99.90;;;;;;5023431;28;20053;-85
2023/08/10 00:13:59;;;;;;;3.42;3.13;;;12.60;99.90;;;;;;5032467;28;20394;-86
2023/08/10 00:16:47;;;;;;;4.13;3.42;;;12.50;99.90;;;;;;5037720;28;20045;-83
2023/08/10 00:19:34;;;;;;;5.85;3.88;;;12.60;99.90;;;;;;5024574;28;20037;-85
2023/08/10 00:22:21;;;;;;;5.97;3.45;;;12.50;99.90;;;;;;5035056;28;20607;-85
2023/08/10 00:25:08;;;;;;;5.22;3.47;;;12.40;99.90;;;;;;5035182;28;20049;-85
2023/08/10 00:27:58;;;;;;;4.47;3.45;;;12.30;99.90;;;;;;5030463;28;20368;-85
2023/08/10 00:30:45;;;;;;;4.85;3.40;;;12.20;99.90;;;;;;5030962;28;20056;-85
2023/08/10 00:33:34;;;;;;;6.07;3.60;;;12.10;99.90;;;;;;5030136;28;20049;-85
2023/08/10 00:36:22;;;;;;;4.32;3.63;;;12.00;99.90;;;;;;5032548;28;20049;-85
2023/08/10 00:39:11;;;;;;;4.35;3.95;;;12.00;99.90;;;;;;5031194;28;20527;-85
2023/08/10 00:41:59;;;;;;;6.05;4.30;;;11.90;99.90;;;;;;5018978;28;20069;-85
2023/08/10 00:44:52;;;;;;;6.28;4.47;;;11.80;99.90;;;;;;5020792;28;20037;-86
2023/08/10 00:47:40;;;;;;;4.43;3.83;;;11.80;99.90;;;;;;5030477;28;20057;-85
2023/08/10 00:50:27;;;;;;;5.22;4.40;;;11.70;99.90;;;;;;5016832;28;20054;-86
2023/08/10 00:53:17;;;;;;;5.22;4.00;;;11.70;99.90;;;;;;5030620;28;20050;-85
2023/08/10 00:56:06;;;;;;;9.60;5.05;;;11.60;99.90;;;;;;5039826;28;20041;-85
2023/08/10 00:58:53;;;;;;;7.40;5.22;;;11.50;99.90;;;;;;5026382;28;20041;-85
2023/08/10 01:01:41;;;;;;;6.18;4.95;;;11.50;99.90;;;;;;5035861;28;20053;-86
2023/08/10 01:04:28;;;;;;;13.40;5.22;;;11.40;99.90;;;;;;5035615;28;20465;-85
2023/08/10 01:07:47;;;;;;;8.20;5.38;;;11.30;99.90;;;;;;5037242;28;20046;-85
2023/08/10 01:10:56;;;;;;;6.25;4.50;;;11.30;99.90;;;;;;5030710;28;20093;-86
2023/08/10 01:13:51;;;;;;;8.23;4.65;;;11.20;99.90;;;;;;5026180;28;20041;-85
2023/08/10 01:16:42;;;;;;;6.32;4.95;;;11.20;99.90;;;;;;5015849;28;20132;-85
2023/08/10 01:19:35;;;;;;;9.63;5.63;;;11.20;99.90;;;;;;5018545;28;20052;-85
2023/08/10 01:22:33;;;;;;;7.20;6.13;;;11.20;99.90;;;;;;5035473;28;20049;-84
2023/08/10 01:25:22;;;;;;;6.63;5.93;;;11.30;99.90;;;;;;5036862;28;20046;-85
2023/08/10 01:28:14;;;;;;;8.38;5.90;;;11.40;99.90;;;;;;5035944;28;20042;-86
2023/08/10 01:31:04;;;;;;;8.80;5.72;;;11.30;99.90;;;;;;5037005;28;20049;-85
2023/08/10 01:33:52;;;;;;;8.43;5.80;;;11.20;99.90;;;;;;5041695;28;20049;-86
2023/08/10 01:36:39;;;;;;;7.45;6.10;;;11.20;99.90;;;;;;5040882;28;20458;-85
2023/08/10 01:39:26;;;;;;;6.60;5.90;;;11.20;99.90;;;;;;5029856;28;20052;-86
2023/08/10 01:42:13;;;;;;;8.90;5.60;;;11.20;99.90;;;;;;5008309;28;20046;-85
2023/08/10 01:45:04;;;;;;;8.43;6.35;;;11.10;99.90;;;;;;5032182;28;20060;-85
2023/08/10 01:48:04;;;;;;;8.10;6.22;;;11.10;99.90;;;;;;5034925;28;20672;-85
2023/08/10 01:50:53;;;;;;;9.27;6.75;;;11.00;99.90;;;;;;5039790;28;20052;-86
2023/08/10 01:53:42;;;;;;;10.15;6.97;;;11.20;99.90;;;;;;5031239;28;20136;-86
2023/08/10 01:56:33;;;;;;;10.30;7.22;;;11.30;99.90;;;;;;5028344;28;20049;-85
2023/08/10 01:59:21;;;;;;;8.18;6.97;;;11.40;99.90;;;;;;5031511;28;20073;-86
2023/08/10 02:02:08;;;;;;;7.88;6.78;;;11.50;99.90;;;;;;5031029;28;20363;-85
2023/08/10 02:04:55;;;;;;;8.32;6.80;;;11.40;99.90;;;;;;5027306;28;20041;-85
2023/08/10 02:07:48;;;;;;;19.52;7.30;;;11.50;99.90;;;;;;5027552;28;20060;-85
2023/08/10 02:10:38;;;;;;;8.35;7.20;;;11.50;99.90;;;;;;5023229;28;20118;-86
2023/08/10 02:13:25;;;;;;;9.80;7.40;;;11.50;99.90;;;;;;5035936;28;20041;-85
2023/08/10 02:16:12;;;;;;;9.18;6.75;;;11.40;99.90;;;;;;5029815;28;20048;-85
2023/08/10 02:19:00;;;;;;;6.75;5.85;;;11.40;99.90;;;;;;5033507;28;20060;-86
2023/08/10 02:21:47;;;;;;;7.35;5.57;;;11.40;99.90;;;;;;5034755;28;20048;-85
2023/08/10 02:24:34;;;;;;;6.90;5.57;;;11.50;99.90;;;;;;5034659;28;20091;-86
2023/08/10 02:27:22;;;;;;;8.02;6.00;;;11.60;99.90;;;;;;5017247;28;20045;-85
2023/08/10 02:30:10;;;;;;;10.40;6.10;;;11.50;99.90;;;;;;5031769;28;20052;-85
2023/08/10 02:32:57;;;;;;;6.32;5.72;;;11.50;99.90;;;;;;5032972;28;20058;-86
2023/08/10 02:35:47;;;;;;;7.13;5.97;;;11.50;99.90;;;;;;5029726;28;20073;-85
2023/08/10 02:38:34;;;;;;;7.35;5.95;;;11.50;99.90;;;;;;5034427;28;20370;-86
2023/08/10 02:41:21;;;;;;;9.52;5.97;;;11.60;99.90;;;;;;5032726;28;20714;-85
2023/08/10 02:44:09;;;;;;;7.43;5.72;;;11.50;99.90;;;;;;5032643;28;20107;-85
2023/08/10 02:46:56;;;;;;;5.95;5.35;;;11.50;99.90;;;;;;5018131;28;20038;-86
2023/08/10 02:49:44;;;;;;;10.10;5.90;;;11.40;99.90;;;;;;5033570;28;20057;-84
2023/08/10 02:52:31;;;;;;;8.05;6.30;;;11.40;99.90;;;;;;5028480;28;20045;-86
2023/08/10 02:55:19;;;;;;;8.63;6.57;;;11.40;99.90;;;;;;5026680;28;20045;-85
2023/08/10 02:58:07;;;;;;;8.05;5.75;;;11.40;99.90;;;;;;5021370;28;20045;-86
2023/08/10 03:00:54;;;;;;;7.07;6.13;;;11.50;99.90;;;;;;5019289;28;20056;-85
2023/08/10 03:03:44;;;;;;;8.50;6.15;;;11.50;99.90;;;;;;5029949;28;20056;-86
2023/08/10 03:06:37;;;;;;;7.00;5.90;;;11.50;99.90;;;;;;5023490;28;20474;-86
2023/08/10 03:09:24;;;;;;;8.05;6.28;;;11.50;99.90;;;;;;5035073;28;20048;-86
2023/08/10 03:12:12;;;;;;;8.20;6.18;;;11.50;99.90;;;;;;5035918;28;20099;-86
2023/08/10 03:14:59;;;;;;;8.45;6.00;;;11.40;99.90;;;;;;5025836;28;20065;-85
2023/08/10 03:17:46;;;;;;;8.63;6.35;;;11.40;99.90;;;;;;5031248;28;20367;-85
2023/08/10 03:20:34;;;;;;;7.57;5.85;;;11.40;99.90;;;;;;5024779;28;20060;-85
2023/08/10 03:23:21;;;;;;;7.28;6.20;;;11.30;99.90;;;;;;5033094;28;20339;-85
2023/08/10 03:26:09;;;;;;;8.65;6.70;;;11.30;99.90;;;;;;5033541;28;20112;-86
2023/08/10 03:28:56;;;;;;;7.38;6.32;;;11.20;99.90;;;;;;5033842;28;20045;-86
2023/08/10 03:31:46;;;;;;;8.88;6.07;;;11.10;99.90;;;;;;5033903;28;20068;-86
2023/08/10 03:34:33;;;;;;;8.48;6.25;;;11.00;99.90;;;;;;5034055;28;20694;-86
2023/08/10 03:37:23;;;;;;;9.73;6.63;;;11.00;99.90;;;;;;5011908;28;20486;-86
2023/08/10 03:40:11;;;;;;;7.65;6.43;;;11.10;99.90;;;;;;5034037;28;20045;-86
2023/08/10 03:42:58;;;;;;;8.98;6.55;;;11.00;99.90;;;;;;5016597;28;20037;-86
2023/08/10 03:45:45;;;;;;;7.70;6.10;;;10.90;99.90;;;;;;5041069;28;20038;-86
2023/08/10 03:48:32;;;;;;;7.38;5.88;;;10.70;99.90;;;;;;5013931;28;20049;-86
2023/08/10 03:51:29;;;;;;;11.52;7.10;;;10.60;99.90;;;;;;5022056;28;20381;-86
2023/08/10 03:54:19;;;;;;;7.55;6.57;;;10.50;99.90;;;;;;5036114;28;20045;-86
2023/08/10 03:57:08;;;;;;;8.50;6.60;;;10.50;99.90;;;;;;5042610;28;20477;-86
2023/08/10 03:59:56;;;;;;;8.98;7.28;;;10.40;99.90;;;;;;5020123;28;20413;-86
2023/08/10 04:02:44;;;;;;;9.63;7.22;;;10.40;99.90;;;;;;5011827;28;20037;-86
2023/08/10 04:05:31;;;;;;;10.85;7.55;;;10.40;99.90;;;;;;5013743;28;20045;-85
2023/08/10 04:08:18;;;;;;;9.52;7.75;;;10.30;99.90;;;;;;5033147;28;20045;-86
2023/08/10 04:11:06;;;;;;;17.48;8.48;;;10.30;99.90;;;;;;5019932;28;20052;-87
2023/08/10 04:13:55;;;;;;;12.68;8.35;;;10.30;99.90;;;;;;5032207;28;20037;-86
2023/08/10 04:16:45;;;;;;;10.77;8.27;;;10.30;99.90;;;;;;5029628;28;20045;-88
2023/08/10 04:19:33;;;;;;;11.40;8.63;;;10.30;99.90;;;;;;5033037;28;20041;-87
2023/08/10 04:22:20;;;;;;;11.13;7.97;;;10.30;99.90;;;;;;5021754;28;20458;-86
2023/08/10 04:25:07;;;;;;;12.68;7.32;;;10.30;99.90;;;;;;5031881;28;20038;-87
2023/08/10 04:27:57;;;;;;;11.35;8.20;;;10.30;99.90;;;;;;5032610;28;20060;-86
2023/08/10 04:30:45;;;;;;;11.40;8.35;;;10.30;99.90;;;;;;5031341;28;20049;-86
2023/08/10 04:33:32;;;;;;;12.38;8.52;;;10.30;99.90;;;;;;5029746;28;20124;-87
2023/08/10 04:36:19;;;;;;;12.93;9.02;;;10.30;99.90;;;;;;5032746;28;20489;-91
2023/08/10 04:39:09;;;;;;;11.70;9.40;;;10.40;99.90;;;;;;5031939;28;20045;-90
2023/08/10 04:41:56;;;;;;;11.52;9.38;;;10.40;99.90;;;;;;5037379;28;20050;-91
2023/08/10 04:44:46;;;;;;;11.25;9.05;;;10.50;99.90;;;;;;5029141;28;20454;-91
2023/08/10 04:47:34;;;;;;;14.63;9.82;;;10.50;99.90;;;;;;5038301;28;20053;-90
2023/08/10 04:50:21;;;;;;;13.43;10.70;;;10.60;99.90;;;;;;5036165;28;20053;-92
2023/08/10 04:53:09;;;;;;;16.05;12.48;;;10.70;99.90;;;;;;5042406;28;20393;-91
2023/08/10 04:56:01;;;;;;;14.55;11.80;;;10.90;99.90;;;;;;5020380;28;20052;-91
2023/08/10 04:58:52;;;;;;;15.48;11.85;;;11.00;99.90;;;;;;5026302;28;20483;-90
2023/08/10 05:01:39;;;;;;;16.10;12.50;;;11.00;99.90;;;;;;5023624;28;20048;-88
2023/08/10 05:04:26;;;;;;;19.02;12.82;;;11.00;99.90;;;;;;5038321;28;20053;-88
2023/08/10 05:07:16;;;;;;;16.70;12.77;;;10.90;99.90;;;;;;5042992;28;20041;-91
2023/08/10 05:10:08;;;;;;;18.10;12.52;;;11.00;99.90;;;;;;5038213;28;20041;-90
2023/08/10 05:12:58;;;;;;;29.80;12.20;;;11.10;99.90;;;;;;5032460;28;20153;-89
2023/08/10 05:15:47;;;;;;;14.65;12.13;;;11.10;99.90;;;;;;5015973;28;20038;-90
2023/08/10 05:18:34;;;;;;;15.50;12.05;;;11.20;99.90;;;;;;5034319;28;20114;-91
2023/08/10 05:21:23;;;;;;;13.32;10.85;;;11.20;99.90;;;;;;5028747;28;20427;-91
2023/08/10 05:24:10;;;;;;;14.82;11.95;;;11.30;99.90;;;;;;5037543;28;20056;-91
2023/08/10 05:27:00;;;;;;;15.90;12.70;;;11.40;99.90;;;;;;5022039;28;20051;-90
2023/08/10 05:29:48;;;;;;;14.52;12.40;;;11.50;99.90;;;;;;5036567;28;20049;-90
2023/08/10 05:32:37;;;;;;;18.63;14.57;;;11.70;99.90;;;;;;5024713;28;20049;-91
2023/08/10 05:35:25;;;;;;;18.02;14.25;;;11.90;99.90;;;;;;5034576;28;20135;-90
2023/08/10 05:38:13;;;;;;;21.75;13.25;;;12.10;99.90;;;;;;5031450;28;20371;-89
2023/08/10 05:41:03;;;;;;;17.55;13.18;;;12.20;99.90;;;;;;5033466;28;20038;-88
2023/08/10 05:43:50;;;;;;;16.92;12.20;;;12.40;99.90;;;;;;5020358;28;20473;-87
2023/08/10 05:46:38;;;;;;;18.23;12.30;;;12.50;99.90;;;;;;5018704;28;20056;-89
2023/08/10 05:49:25;;;;;;;16.55;13.45;;;12.70;99.90;;;;;;5032795;28;20347;-88
2023/08/10 05:52:12;;;;;;;16.45;11.65;;;13.00;99.90;;;;;;5035895;28;20187;-88
2023/08/10 05:55:02;;;;;;;16.85;11.48;;;13.10;99.90;;;;;;5021095;28;20052;-87
2023/08/10 05:57:50;;;;;;;13.77;10.48;;;13.30;99.90;;;;;;5018398;28;20041;-88
2023/08/10 06:00:39;;;;;;;14.95;10.80;;;13.40;99.90;;;;;;5032281;28;20098;-89
2023/08/10 06:03:27;;;;;;;13.93;11.45;;;13.60;99.90;;;;;;5017324;28;20462;-87
2023/08/10 06:06:16;;;;;;;12.18;10.35;;;13.90;99.90;;;;;;5017647;28;20056;-88
2023/08/10 06:09:04;;;;;;;16.02;12.43;;;14.20;99.90;;;;;;5018945;28;20387;-89
2023/08/10 06:11:51;;;;;;;11.10;8.88;;;14.50;99.90;;;;;;5038385;28;20145;-88
2023/08/10 06:14:39;;;;;;;9.57;8.40;;;14.70;99.90;;;;;;5032869;28;20368;-87
2023/08/10 06:17:26;;;;;;;9.20;6.60;;;14.90;99.90;;;;;;5014750;28;20049;-86
2023/08/10 06:20:21;;;;;;;10.05;6.30;;;15.00;99.90;;;;;;5029957;28;20577;-88
2023/08/10 06:23:12;;;;;;;8.07;4.93;;;15.10;99.90;;;;;;5029178;28;20059;-87
2023/08/10 06:26:03;;;;;;;7.07;4.93;;;15.20;99.90;;;;;;5018295;28;20045;-87
2023/08/10 06:28:51;;;;;;;7.75;5.80;;;15.40;99.90;;;;;;5031656;28;20056;-87
2023/08/10 06:31:38;;;;;;;6.55;5.47;;;15.40;99.90;;;;;;5035511;28;20061;-88
2023/08/10 06:34:25;;;;;;;7.00;5.75;;;15.60;99.90;;;;;;5030338;28;20097;-88
2023/08/10 06:37:15;;;;;;;6.93;5.95;;;15.70;99.90;;;;;;5011203;28;20055;-88
2023/08/10 06:40:08;;;;;;;7.00;5.72;;;15.80;99.90;;;;;;5018965;28;20051;-87
2023/08/10 06:42:55;;;;;;;8.82;5.00;;;16.00;1.00;;;;;;5033404;28;20056;-87
2023/08/10 06:45:43;;;;;;;6.32;5.72;;;16.20;99.90;;;;;;5031252;28;20152;-87
2023/08/10 06:48:30;;;;;;;7.18;4.97;;;16.50;1.00;;;;;;5015307;28;20038;-87
2023/08/10 06:51:20;;;;;;;5.78;4.47;;;16.70;1.00;;;;;;5029500;28;20049;-87
2023/08/10 06:54:07;;;;;;;7.03;5.00;;;16.90;99.90;;;;;;5030030;28;20072;-88
2023/08/10 06:56:55;;;;;;;5.70;4.63;;;17.10;99.90;;;;;;5017648;28;20135;-87
2023/08/10 06:59:43;;;;;;;9.95;5.53;;;17.10;99.90;;;;;;5017893;28;20383;-87
2023/08/10 07:02:42;;;;;;;5.68;4.88;;;17.10;1.00;;;;;;5028860;28;20046;-92
2023/08/10 07:14:22;;;;;;;7.28;3.88;;;17.70;1.00;;;;;;5029493;28;20033;-92
2023/08/10 07:17:31;;;;;;;4.43;3.80;;;17.60;99.90;;;;;;4966291;28;20045;-89
2023/08/10 07:20:20;;;;;;;4.38;3.53;;;17.70;99.90;;;;;;5026403;28;20115;-88
2023/08/10 07:23:11;;;;;;;3.80;3.30;;;18.00;99.90;;;;;;5017567;28;20091;-91
2023/08/10 07:30:20;;;;;;;4.55;3.95;;;18.00;1.00;;;;;;4953891;28;20134;-91
2023/08/10 07:33:29;;;;;;;4.10;3.75;;;17.80;1.00;;;;;;4960501;28;20062;-89
2023/08/10 07:36:35;;;;;;;6.13;3.53;;;17.80;1.00;;;;;;4953585;28;20388;-89
2023/08/10 07:39:47;;;;;;;;;;;;;;;;;;;;;
2023/08/10 07:43:59;;;;;;;3.40;3.03;;;18.80;1.00;;;;;;5031943;28;20056;-88
2023/08/10 07:46:56;;;;;;;7.65;3.75;;;18.90;99.90;;;;;;5030140;28;20033;-90
2023/08/10 07:49:45;;;;;;;4.20;3.75;;;19.00;88.90;;;;;;5009845;28;20123;-87
2023/08/10 07:52:32;;;;;;;5.40;3.97;;;19.00;1.00;;;;;;5013205;28;20056;-91
2023/08/10 07:55:25;;;;;;;7.25;4.03;;;18.80;1.00;;;;;;5030006;28;20052;-90
2023/08/10 07:58:43;;;;;;;5.43;3.90;;;18.90;1.00;;;;;;5031496;28;20113;-88
2023/08/10 08:01:35;;;;;;;6.88;3.58;;;19.30;1.00;;;;;;5018395;28;20063;-92
2023/08/10 08:04:27;;;;;;;3.97;3.60;;;19.70;1.00;;;;;;5031966;28;20044;-88
2023/08/10 08:07:17;;;;;;;4.20;3.30;;;19.80;99.90;;;;;;5031352;28;20047;-91
2023/08/10 08:10:13;;;;;;;5.35;3.20;;;19.80;99.90;;;;;;5026532;28;20474;-90
2023/08/10 08:13:03;;;;;;;4.90;3.30;;;20.00;99.90;;;;;;5017976;28;20064;-88
2023/08/10 08:15:50;;;;;;;4.15;3.22;;;20.10;99.90;;;;;;5029676;28;20073;-91
2023/08/10 08:18:48;;;;;;;5.38;3.20;;;20.10;99.90;;;;;;5012510;28;20056;-91
2023/08/10 08:21:48;;;;;;;4.53;2.83;;;20.70;99.90;;;;;;5018956;28;20086;-89
2023/08/10 08:24:39;;;;;;;3.47;2.80;;;21.60;91.60;;;;;;5018790;28;20042;-89
2023/08/10 08:27:29;;;;;;;5.15;3.38;;;21.50;1.00;;;;;;5015992;28;20056;-86
2023/08/10 08:30:16;;;;;;;3.85;2.72;;;21.10;1.00;;;;;;5015483;28;20390;-86
2023/08/10 08:33:04;;;;;;;4.25;3.00;;;21.30;1.00;;;;;;5029642;28;20046;-88
2023/08/10 08:35:51;;;;;;;3.33;2.50;;;21.50;1.00;;;;;;5018659;28;20391;-85
2023/08/10 08:38:40;;;;;;;4.28;2.83;;;21.70;1.00;;;;;;5028878;28;20125;-87
2023/08/10 08:41:36;;;;;;;2.75;2.20;;;22.60;1.00;;;;;;5016223;28;20486;-89
2023/08/10 08:44:24;;;;;;;3.75;2.47;;;24.00;1.00;;;;;;5014846;28;20053;-91
2023/08/10 08:47:15;;;;;;;3.22;2.25;;;25.20;99.90;;;;;;5029169;28;20052;-90
2023/08/10 08:50:03;;;;;;;4.07;2.35;;;25.10;99.90;;;;;;5024489;28;20037;-89
2023/08/10 08:52:59;;;;;;;2.40;2.20;;;24.70;99.90;;;;;;5027733;28;20168;-91
2023/08/10 08:56:06;;;;;;;3.97;2.38;;;24.10;99.90;;;;;;5029860;28;20071;-90
2023/08/10 08:59:03;;;;;;;6.97;2.80;;;24.60;99.90;;;;;;5029913;28;20049;-88
2023/08/10 09:01:55;;;;;;;2.90;2.30;;;25.50;99.90;;;;;;5018915;28;20049;-87
2023/08/10 09:04:59;;;;;;;4.05;2.10;;;25.80;99.90;;;;;;5031373;28;20530;-87
2023/08/10 09:07:46;;;;;;;3.83;2.20;;;26.70;99.90;;;;;;5032457;28;20128;-89
2023/08/10 09:14:16;;;;;;;3.83;2.42;;;26.00;99.90;;;;;;5030350;28;20525;-92
2023/08/10 09:17:04;;;;;;;2.50;2.30;;;26.00;99.90;;;;;;5018628;28;20055;-87
2023/08/10 09:19:56;;;;;;;3.42;2.33;;;25.40;99.90;;;;;;5017852;28;20171;-86
2023/08/10 09:22:45;;;;;;;2.65;2.22;;;25.20;99.90;;;;;;5029390;28;20045;-90
2023/08/10 09:25:38;;;;;;;2.03;1.83;;;25.70;99.90;;;;;;5035165;28;20130;-89
2023/08/10 09:28:30;;;;;;;2.67;2.00;;;26.50;99.90;;;;;;5022244;28;20042;-90
2023/08/10 09:31:28;;;;;;;3.35;2.45;;;27.30;99.90;;;;;;5035206;28;20413;-89
2023/08/10 09:34:22;;;;;;;2.85;1.60;;;27.60;99.90;;;;;;5029515;28;20482;-89
2023/08/10 09:37:12;;;;;;;3.95;1.67;;;28.10;99.90;;;;;;5034422;28;20109;-89
2023/08/10 09:40:06;;;;;;;2.75;1.80;;;28.60;99.90;;;;;;5026777;28;20048;-90
2023/08/10 09:42:55;;;;;;;2.17;1.50;;;28.60;99.90;;;;;;5032636;28;20128;-91
2023/08/10 09:45:44;;;;;;;1.65;1.35;;;29.30;99.90;;;;;;5030724;28;20057;-89
2023/08/10 09:48:50;;;;;;;1.65;1.40;;;30.30;99.90;;;;;;5016520;28;20056;-90
2023/08/10 09:51:38;;;;;;;3.78;1.60;;;30.90;99.90;;;;;;5015959;28;20213;-87
2023/08/10 09:54:26;;;;;;;1.92;1.75;;;30.50;99.90;;;;;;5032564;28;20084;-89
2023/08/10 09:57:15;;;;;;;2.38;1.60;;;29.90;99.90;;;;;;5018458;28;20450;-89
2023/08/10 10:00:13;;;;;;;1.70;1.60;;;30.00;99.90;;;;;;5027604;28;20240;-92
2023/08/10 10:03:03;;;;;;;2.08;1.70;;;30.60;99.90;;;;;;5031448;28;20421;-89
2023/08/10 10:05:51;;;;;;;2.30;1.67;;;31.00;99.90;;;;;;5016660;28;20068;-90
2023/08/10 10:08:42;;;;;;;1.75;1.63;;;30.00;99.90;;;;;;5018452;28;20116;-93
2023/08/10 10:11:31;;;;;;;2.45;1.83;;;28.90;99.90;;;;;;5022891;28;20056;-92
2023/08/10 10:14:20;;;;;;;2.10;1.90;;;27.60;99.90;;;;;;5014845;28;20087;-89
2023/08/10 10:17:09;;;;;;;2.55;1.65;;;27.20;99.90;;;;;;5030064;28;20064;-90
2023/08/10 10:20:08;;;;;;;4.82;1.90;;;27.50;99.90;;;;;;5034249;28;20068;-92
2023/08/10 10:23:03;;;;;;;1.95;1.60;;;27.90;99.90;;;;;;5004675;28;20483;-90
2023/08/10 10:26:07;;;;;;;2.95;1.88;;;29.00;99.90;;;;;;5014507;28;20046;-91
2023/08/10 10:29:54;;;;;;;3.40;2.10;;;30.70;99.90;;;;;;5029672;28;20393;-92
2023/08/10 10:32:59;;;;;;;4.45;1.70;;;29.40;99.90;;;;;;5028219;28;20045;-88
2023/08/10 10:36:04;;;;;;;2.28;1.75;;;29.50;99.90;;;;;;5034686;28;20073;-89
2023/08/10 10:39:20;;;;;;;2.53;1.48;;;30.70;99.90;;;;;;5021258;28;20049;-91
2023/08/10 10:42:11;;;;;;;2.63;1.70;;;31.50;99.90;;;;;;5031066;28;20766;-89
2023/08/10 10:45:14;;;;;;;1.98;1.77;;;32.10;99.90;;;;;;5035121;28;20046;-89
2023/08/10 10:48:04;;;;;;;2.08;1.80;;;32.30;99.90;;;;;;5031912;28;20038;-92
2023/08/10 10:51:07;;;;;;;1.83;1.70;;;33.20;99.90;;;;;;5037253;28;20462;-93
2023/08/10 10:59:31;;;;;;;3.17;1.65;;;30.40;92.80;;;;;;5035916;28;20112;-86
2023/08/10 11:02:42;;;;;;;2.17;1.75;;;30.40;89.40;;;;;;5000517;28;20079;-90
2023/08/10 11:05:35;;;;;;;3.55;2.00;;;30.00;80.20;;;;;;5018013;28;20393;-90
2023/08/10 11:08:22;;;;;;;2.15;1.73;;;30.00;80.50;;;;;;5013239;28;20048;-91
2023/08/10 11:11:18;;;;;;;2.67;1.80;;;30.30;80.20;;;;;;5033894;28;20052;-93
2023/08/10 11:14:41;;;;;;;;;;;;;;;;;;;;;
2023/08/10 11:26:07;;;;;;;2.25;1.88;;;32.40;79.20;;;;;;4847008;29;20476;-89
2023/08/10 11:28:55;;;;;;;1.50;1.40;;;32.40;60.20;;;;;;4848841;29;20144;-92
2023/08/10 11:31:44;;;;;;;2.17;1.80;;;32.60;90.60;;;;;;4898408;28;20299;-91
2023/08/10 11:34:38;;;;;;;2.35;1.92;;;32.80;99.90;;;;;;4951535;28;20055;-90
2023/08/10 11:37:37;;;;;;;3.83;2.13;;;33.40;71.50;;;;;;4954461;28;20047;-92
2023/08/10 11:40:24;;;;;;;2.10;1.75;;;33.70;92.10;;;;;;4959170;28;20511;-91
2023/08/10 11:43:19;;;;;;;2.25;1.77;;;34.40;92.80;;;;;;4955421;28;20039;-89
2023/08/10 11:46:10;;;;;;;2.00;1.60;;;34.90;70.00;;;;;;4952733;28;20472;-89
2023/08/10 11:48:58;;;;;;;4.55;1.70;;;34.40;86.80;;;;;;4952617;28;20070;-92
2023/08/10 11:51:48;;;;;;;1.77;1.55;;;33.50;56.90;;;;;;4938924;28;20137;-91
2023/08/10 11:54:35;;;;;;;2.38;2.17;;;33.50;79.80;;;;;;4951622;28;20043;-91
2023/08/10 11:57:22;;;;;;;3.05;1.80;;;33.40;54.50;;;;;;4951732;28;20051;-88
2023/08/10 12:00:22;;;;;;;2.13;1.92;;;33.30;99.90;;;;;;5027989;28;20179;-93
2023/08/10 12:03:23;;;;;;;3.85;2.05;;;33.60;85.50;;;;;;5029268;28;20049;-89
2023/08/10 12:06:25;;;;;;;2.03;1.77;;;33.80;91.40;;;;;;5029275;28;20064;-91
2023/08/10 12:09:12;;;;;;;2.00;1.80;;;34.40;93.10;;;;;;5034097;28;20068;-88
2023/08/10 12:12:00;;;;;;;1.77;1.63;;;34.60;92.10;;;;;;5032886;28;20080;-90
2023/08/10 12:14:47;;;;;;;2.13;1.92;;;33.30;94.40;;;;;;5031672;28;20042;-89
2023/08/10 12:17:35;;;;;;;3.17;1.80;;;33.50;96.40;;;;;;5031915;28;20378;-91
2023/08/10 12:20:22;;;;;;;2.70;1.70;;;34.20;99.90;;;;;;5029642;28;20056;-90
2023/08/10 12:23:14;;;;;;;2.77;1.90;;;34.40;95.00;;;;;;5019107;28;20045;-93
2023/08/10 12:26:04;;;;;;;2.05;1.60;;;34.30;99.90;;;;;;5031377;28;20060;-90
2023/08/10 12:28:54;;;;;;;3.75;1.90;;;33.70;99.90;;;;;;5032977;28;20049;-92
2023/08/10 12:31:41;;;;;;;2.10;1.75;;;33.40;61.00;;;;;;5030886;28;20045;-92
2023/08/10 12:34:31;;;;;;;4.90;2.08;;;33.00;97.70;;;;;;5018391;28;20135;-88
2023/08/10 12:37:24;;;;;;;2.47;1.75;;;32.50;39.20;;;;;;5018861;28;20057;-88
2023/08/10 12:40:12;;;;;;;3.15;1.75;;;33.00;41.10;;;;;;5033366;28;20050;-92
2023/08/10 12:43:02;;;;;;;2.65;1.52;;;33.50;70.30;;;;;;5032251;28;20504;-90
2023/08/10 12:45:50;;;;;;;3.60;1.93;;;33.90;47.80;;;;;;5031571;28;20045;-92
2023/08/10 12:48:38;;;;;;;2.42;1.95;;;33.60;96.00;;;;;;5033531;28;20284;-88
2023/08/10 12:51:28;;;;;;;2.00;1.80;;;33.40;94.00;;;;;;5031698;28;20368;-89
2023/08/10 12:54:15;;;;;;;2.75;1.85;;;34.00;52.80;;;;;;5027968;28;20107;-90
2023/08/10 12:57:03;;;;;;;2.35;1.77;;;34.60;79.00;;;;;;5033382;28;20424;-93
2023/08/10 12:59:53;;;;;;;1.77;1.63;;;34.20;92.20;;;;;;5021923;28;20116;-90
2023/08/10 13:02:45;;;;;;;2.08;1.55;;;34.30;95.40;;;;;;5038165;28;20056;-90
2023/08/10 13:05:35;;;;;;;2.20;1.85;;;34.00;48.50;;;;;;5037312;28;20048;-90
2023/08/10 13:08:24;;;;;;;2.15;1.50;;;34.70;99.90;;;;;;5036405;28;20115;-93
2023/08/10 13:11:17;;;;;;;4.20;1.50;;;36.20;30.90;;;;;;5038198;28;20046;-86
2023/08/10 13:14:05;;;;;;;2.90;1.80;;;36.50;34.30;;;;;;5039947;28;20160;-92
2023/08/10 13:16:52;;;;;;;2.03;1.73;;;37.60;51.00;;;;;;5032820;28;20046;-91
2023/08/10 13:19:42;;;;;;;4.38;1.67;;;38.10;27.50;;;;;;5034923;28;20053;-89
2023/08/10 13:22:31;;;;;;;1.77;1.60;;;37.70;96.20;;;;;;5036473;28;20047;-89
2023/08/10 13:25:21;;;;;;;3.40;2.05;;;37.30;17.60;;;;;;5033208;28;20041;-92
2023/08/10 13:28:10;;;;;;;3.25;2.22;;;36.40;57.60;;;;;;5036872;28;20465;-94
2023/08/10 13:30:58;;;;;;;2.60;2.08;;;35.10;11.20;;;;;;5022776;28;20048;-94
2023/08/10 13:33:46;;;;;;;2.85;2.17;;;35.00;8.40;;;;;;5038188;28;20149;-90
2023/08/10 13:36:34;;;;;;;2.28;2.00;;;34.10;20.10;;;;;;5037651;28;20042;-91
2023/08/10 13:39:26;;;;;;;2.25;1.90;;;33.80;27.20;;;;;;5037414;28;20044;-91
2023/08/10 13:42:14;;;;;;;2.40;1.92;;;33.60;60.50;;;;;;5034995;28;20137;-87
2023/08/10 13:45:01;;;;;;;2.53;1.90;;;32.40;27.70;;;;;;5019163;28;20041;-85
2023/08/10 13:47:48;;;;;;;4.15;1.70;;;32.50;43.90;;;;;;5017805;28;20048;-86
2023/08/10 13:50:44;;;;;;;6.28;1.92;;;33.40;48.60;;;;;;5030782;28;20050;-89
2023/08/10 13:53:32;;;;;;;1.92;1.70;;;33.90;77.40;;;;;;5032704;28;20405;-88
2023/08/10 13:56:19;;;;;;;3.10;1.88;;;33.80;47.20;;;;;;5034123;28;20183;-92
2023/08/10 13:59:10;;;;;;;2.75;1.70;;;33.70;43.10;;;;;;5031515;28;20129;-91
2023/08/10 14:02:00;;;;;;;5.03;2.00;;;34.10;43.00;;;;;;5040128;28;20157;-89
2023/08/10 14:04:47;;;;;;;2.53;1.90;;;34.00;49.80;;;;;;5029747;28;20435;-92
2023/08/10 14:07:34;;;;;;;3.05;1.83;;;34.30;32.90;;;;;;5033455;28;20081;-89
2023/08/10 14:10:22;;;;;;;1.60;1.50;;;34.20;22.60;;;;;;5017824;28;20450;-91
2023/08/10 14:13:09;;;;;;;2.25;1.73;;;34.90;17.60;;;;;;5031968;28;20053;-94
2023/08/10 14:15:58;;;;;;;2.08;1.85;;;34.60;18.10;;;;;;5033281;28;20101;-89
2023/08/10 14:18:51;;;;;;;6.18;2.17;;;34.20;1.00;;;;;;5036693;28;20041;-92
2023/08/10 14:21:39;;;;;;;2.17;1.90;;;33.10;19.40;;;;;;5032603;28;20052;-90
2023/08/10 14:24:27;;;;;;;2.40;2.00;;;34.10;4.50;;;;;;5030442;28;20057;-91
2023/08/10 14:27:16;;;;;;;4.20;2.15;;;33.30;6.40;;;;;;5015814;28;20059;-92
2023/08/10 14:30:04;;;;;;;2.85;2.03;;;33.40;1.00;;;;;;5031549;28;20045;-90
2023/08/10 14:32:55;;;;;;;1.95;1.80;;;33.50;1.00;;;;;;5021930;28;20045;-93
2023/08/10 14:35:42;;;;;;;3.28;2.28;;;32.80;1.00;;;;;;5037618;28;20164;-92
2023/08/10 14:38:32;;;;;;;2.80;1.77;;;30.50;3.40;;;;;;5002525;28;20050;-90
2023/08/10 14:41:29;;;;;;;3.22;2.05;;;30.70;15.20;;;;;;5035828;28;20064;-92
2023/08/10 14:44:22;;;;;;;3.20;1.70;;;32.00;18.70;;;;;;5034097;28;20052;-91
2023/08/10 14:47:09;;;;;;;4.97;2.00;;;33.10;31.60;;;;;;5016357;28;20065;-89
2023/08/10 14:49:57;;;;;;;4.00;1.98;;;33.00;34.80;;;;;;5020581;28;20045;-92
2023/08/10 14:52:46;;;;;;;5.70;2.05;;;33.40;28.70;;;;;;5032379;28;20045;-90
2023/08/10 14:55:34;;;;;;;3.45;1.92;;;32.90;22.90;;;;;;5022825;28;20171;-92
2023/08/10 14:58:21;;;;;;;2.63;1.67;;;32.80;16.20;;;;;;5032377;28;20045;-89
2023/08/10 15:01:12;;;;;;;3.33;1.80;;;33.40;44.10;;;;;;5017189;28;20041;-90
2023/08/10 15:04:00;;;;;;;2.55;2.03;;;33.60;38.60;;;;;;5040810;28;20078;-89
2023/08/10 15:06:50;;;;;;;2.85;2.00;;;33.80;28.80;;;;;;5050081;28;20038;-85
2023/08/10 15:09:39;;;;;;;2.85;2.22;;;33.10;41.00;;;;;;5026853;28;20447;-91
2023/08/10 15:12:27;;;;;;;6.63;1.83;;;33.20;45.10;;;;;;5038905;28;20049;-92
2023/08/10 15:15:21;;;;;;;3.35;1.90;;;33.80;39.30;;;;;;5043149;28;20056;-90
2023/08/10 15:18:08;;;;;;;2.97;2.20;;;34.10;47.70;;;;;;5042697;28;20080;-93
2023/08/10 15:20:58;;;;;;;2.25;1.92;;;33.30;63.40;;;;;;5034451;28;20084;-91
2023/08/10 15:23:46;;;;;;;2.22;1.98;;;33.20;49.50;;;;;;5045287;28;20172;-90